Nova Olinda, Brazil
Current Conditions -  °F | °C
As of 4:15 AM on Thursday 25 Dec 2014 (Local Time) from SBIZ Reporting Station
Haze Haze  
Wind Chill: 75°   Ceiling: 700
Heat Index: 75°   Visibility: 3mi
Dew Point: 75°   Wind: 2mph
Humidity: 100%   Direction: 130°SE
Pressure: 29.85"   Gusts: NA
Location:  7.63°S, 48.42°W
Report Text: SBIZ 250715Z 13002KT 5000 BR BKN007 24/24 Q1011
Loading
Personal Weather Stations






























Interactive Weather Map New forecast layout! Learn more

10-Day Weather Forecast

Advertisements
Track Severe Weather on mobile